San José Airport
MGSJ : rendu visible

Aérodrome :











RETROUVEZ-NOUS SUR...

 
LOGIN :

S'inscrire | Disclaimer

   EN    FR    IT 

 









Légende :    VFR   VFR Marginal   IFR   IFR Intensif   IFR Très Intensif
Visi : 
Plafond : 
>= 8 km
>= 3000ft
5 à 8 km
1000 à 3000 ft
1500m à 5 km
500 à 1000 ft
800 à 1500m
200 à 500 ft
< 800m
< 200 ft
Symboles :   Orages  Brouillard  Fortes neiges  Fortes précipitations  Vent > 20 kt






- Altitude de l'aérodrome : 29 ft


MGSJ - San José

DERNIER METAR :
  • 272300Z 14004KT 9999 FEW018 SCT090 BKN200 28/26 Q1011 A2985

METARs EXPIRÉS :
  • 272200Z 25004KT 9999 FEW018 SCT090 BKN200 28/26 Q1010 A2983

TAF TAF MGSJ
Valide du 27 à 12h jusqu'au 28 à 12h UTC


2712/2812 00000KT 9999 SCT016 TX34/2720Z TN25/2712Z
BECMG 2715/2717 18008KT FEW018
TEMPO 2720/2804 7000 TSRA SCT020TCU FEW025CB
BECMG 2800/2802 00000KT SCT016 SCT080
PROB30 2807/2810 TS FEW025CB
FIR MHTG / Amérique du Nord



MET'MAP, la Météo Aéronautique d'un coup d'oeil ! - Copyright ORBIFLY Décembre 2007 - Disclaimer

ORBIFLY MET'MAP TEAM :

Programmation & Développement : Alexandra Zaïnal
Sur une idée originale de : Baudouin d'Aumeries
Assistance à la programmation : Marc-Olivier Méhu
Soutien technique & logistique : Manuel Goepfert

Contact : metmap@orbifly.com




SOURCES & CREDITS :

   NOAA       Earth
Advisory